Time,TemperatureF,DewpointF,PressureIn,WindDirection,WindDirectionDegrees,WindSpeedMPH,WindSpeedGustMPH,Humidity,HourlyPrecipIn,Conditions,Clouds,dailyrainin,SoftwareType,DateUTC
2013-08-01 00:00:00,75.4,69.5,30.00,South,173,5.0,10.0,82,0.00,,SCT110,0.00,VWS V14.01,2013-08-01 04:00:00,
2013-08-01 00:01:00,75.4,69.5,30.00,South,173,8.0,10.0,82,0.00,,SCT110,0.00,VWS V14.01,2013-08-01 04:01:00,
2013-08-01 00:02:00,75.3,69.4,30.00,SW,216,8.0,10.0,82,0.00,,SCT110,0.00,VWS V14.01,2013-08-01 04:02:00,
2013-08-01 00:07:00,75.3,69.8,30.00,SW,228,7.0,13.0,83,0.00,,SCT110,0.00,VWS V14.01,2013-08-01 04:07:00,
2013-08-01 00:13:00,75.1,69.2,30.00,SW,235,5.0,13.0,82,0.00,,SCT110,0.00,VWS V14.01,2013-08-01 04:13:00,
2013-08-01 00:18:00,74.9,69.0,30.00,SSW,210,11.0,11.0,82,0.00,,SCT110,0.00,VWS V14.01,2013-08-01 04:18:00,
2013-08-01 00:23:00,74.8,68.9,30.00,South,182,4.0,11.0,82,0.00,,SCT110,0.00,VWS V14.01,2013-08-01 04:23:00,
2013-08-01 00:28:00,74.8,69.3,30.00,South,171,5.0,12.0,83,0.00,,SCT110,0.00,VWS V14.01,2013-08-01 04:28:00,
2013-08-01 00:33:00,74.7,69.6,29.99,SW,221,6.0,11.0,84,0.00,,SCT110,0.00,VWS V14.01,2013-08-01 04:33:00,
2013-08-01 00:38:00,74.6,69.4,29.99,SSE,159,2.0,9.0,84,0.00,,SCT110,0.00,VWS V14.01,2013-08-01 04:38:00,
2013-08-01 00:43:00,74.5,69.7,29.99,SSE,153,7.0,10.0,85,0.00,,CLR,0.00,VWS V14.01,2013-08-01 04:43:00,
2013-08-01 00:48:00,74.4,69.6,29.99,SSW,205,3.0,12.0,85,0.00,,CLR,0.00,VWS V14.01,2013-08-01 04:48:00,
2013-08-01 00:53:00,74.3,69.5,29.99,SW,222,11.0,11.0,85,0.00,,CLR,0.00,VWS V14.01,2013-08-01 04:53:00,
2013-08-01 00:58:00,74.3,69.8,29.99,WSW,239,4.0,7.0,86,0.00,,CLR,0.00,VWS V14.01,2013-08-01 04:58:00,
2013-08-01 01:03:00,74.2,70.1,29.99,SSW,194,7.0,10.0,87,0.00,,CLR,0.00,VWS V14.01,2013-08-01 05:03:00,
2013-08-01 01:08:00,74.1,70.0,29.98,SSW,213,5.0,7.0,87,0.00,,CLR,0.00,VWS V14.01,2013-08-01 05:08:00,
2013-08-01 01:13:00,74.0,69.9,29.98,SSW,206,6.0,13.0,87,0.00,,CLR,0.00,VWS V14.01,2013-08-01 05:13:00,
2013-08-01 01:18:00,73.9,70.1,29.98,SW,227,6.0,9.0,88,0.00,,CLR,0.00,VWS V14.01,2013-08-01 05:18:00,
2013-08-01 01:23:00,73.8,70.0,29.98,SW,218,7.0,13.0,88,0.00,,CLR,0.00,VWS V14.01,2013-08-01 05:23:00,
2013-08-01 01:28:00,73.7,69.9,29.98,WSW,242,13.0,13.0,88,0.00,,CLR,0.00,VWS V14.01,2013-08-01 05:28:00,
2013-08-01 01:33:00,73.5,70.1,29.98,SSW,211,4.0,13.0,89,0.00,,CLR,0.00,VWS V14.01,2013-08-01 05:33:00,
2013-08-01 01:38:00,73.4,70.0,29.98,SW,223,6.0,12.0,89,0.00,,CLR,0.00,VWS V14.01,2013-08-01 05:38:00,
2013-08-01 01:43:00,73.1,69.3,29.98,SSW,203,9.0,11.0,88,0.00,,SCT120,0.00,VWS V14.01,2013-08-01 05:43:00,
2013-08-01 01:48:00,73.0,69.6,29.97,WSW,240,6.0,11.0,89,0.00,,SCT120,0.00,VWS V14.01,2013-08-01 05:48:00,
2013-08-01 01:53:00,72.8,69.4,29.97,SSW,200,1.0,11.0,89,0.00,,BKN095,0.00,VWS V14.01,2013-08-01 05:53:00,
2013-08-01 01:58:00,72.6,69.2,29.97,SW,234,5.0,6.0,89,0.00,,BKN095,0.00,VWS V14.01,2013-08-01 05:58:00,
2013-08-01 02:03:00,72.3,69.2,29.97,WSW,240,9.0,10.0,90,0.00,,BKN095,0.00,VWS V14.01,2013-08-01 06:03:00,
2013-08-01 02:08:00,72.0,69.2,29.97,SW,217,3.0,7.0,91,0.00,,BKN095,0.00,VWS V14.01,2013-08-01 06:08:00,
2013-08-01 02:13:00,71.7,69.3,29.97,South,180,3.0,11.0,92,0.01,,BKN095,0.01,VWS V14.01,2013-08-01 06:13:00,
2013-08-01 02:18:00,71.4,69.3,29.97,SSW,210,1.0,9.0,93,0.01,,BKN095,0.01,VWS V14.01,2013-08-01 06:18:00,
2013-08-01 02:23:00,71.3,69.2,29.97,SW,223,8.0,10.0,93,0.02,,BKN095,0.02,VWS V14.01,2013-08-01 06:23:00,
2013-08-01 02:28:00,71.0,68.9,29.97,SSW,213,6.0,11.0,93,0.02,,BKN095,0.02,VWS V14.01,2013-08-01 06:28:00,
2013-08-01 02:33:00,70.9,68.8,29.96,SSW,208,6.0,6.0,93,0.02,,BKN095,0.02,VWS V14.01,2013-08-01 06:33:00,
2013-08-01 02:38:00,70.6,68.5,29.96,SSW,209,3.0,7.0,93,0.02,,BKN095,0.02,VWS V14.01,2013-08-01 06:38:00,
2013-08-01 02:43:00,70.5,68.4,29.96,SSW,211,3.0,5.0,93,0.03,,OVC085,0.03,VWS V14.01,2013-08-01 06:43:00,
2013-08-01 02:48:00,70.3,68.2,29.96,South,187,0.0,3.0,93,0.04,,OVC085,0.04,VWS V14.01,2013-08-01 06:48:00,
2013-08-01 02:53:00,70.1,68.0,29.95,South,177,0.0,4.0,93,0.04,,OVC075,0.04,VWS V14.01,2013-08-01 06:53:00,
2013-08-01 02:58:00,70.1,68.3,29.95,South,177,0.0,5.0,94,0.04,,OVC075,0.04,VWS V14.01,2013-08-01 06:58:00,
2013-08-01 03:03:00,70.3,68.5,29.95,South,178,0.0,4.0,94,0.04,,OVC075,0.04,VWS V14.01,2013-08-01 07:03:00,
2013-08-01 03:09:00,70.5,69.0,29.95,SSW,200,0.0,4.0,95,0.04,,OVC075,0.04,VWS V14.01,2013-08-01 07:09:00,
2013-08-01 03:14:00,70.7,69.2,29.95,South,182,0.0,2.0,95,0.05,,OVC075,0.05,VWS V14.01,2013-08-01 07:14:00,
2013-08-01 03:19:00,70.9,69.4,29.95,SSW,208,2.0,4.0,95,0.06,,OVC075,0.06,VWS V14.01,2013-08-01 07:19:00,
2013-08-01 03:24:00,70.9,69.4,29.94,SSW,192,0.0,6.0,95,0.06,,OVC075,0.06,VWS V14.01,2013-08-01 07:24:00,
2013-08-01 03:29:00,70.9,69.4,29.94,SSE,167,2.0,6.0,95,0.06,,OVC075,0.06,VWS V14.01,2013-08-01 07:29:00,
2013-08-01 03:34:00,71.0,69.5,29.94,SSE,166,4.0,9.0,95,0.04,,OVC075,0.06,VWS V14.01,2013-08-01 07:34:00,
2013-08-01 03:39:00,71.1,69.3,29.94,WSW,254,4.0,6.0,94,0.04,,OVC075,0.06,VWS V14.01,2013-08-01 07:39:00,
2013-08-01 03:44:00,71.3,69.5,29.94,SSE,163,7.0,9.0,94,0.04,,RA,0.06,VWS V14.01,2013-08-01 07:44:00,
2013-08-01 03:49:00,71.3,69.2,29.93,SSE,164,4.0,8.0,93,0.04,,RA,0.06,VWS V14.01,2013-08-01 07:49:00,
2013-08-01 03:54:00,71.5,69.4,29.93,SSE,164,5.0,10.0,93,0.04,,-RA,0.06,VWS V14.01,2013-08-01 07:54:00,
2013-08-01 03:59:00,71.7,69.6,29.94,SSE,161,5.0,9.0,93,0.04,,-RA,0.06,VWS V14.01,2013-08-01 07:59:00,
2013-08-01 04:04:00,71.7,69.6,29.93,SSE,151,7.0,12.0,93,0.03,,-RA,0.07,VWS V14.01,2013-08-01 08:04:00,
2013-08-01 04:09:00,71.7,69.9,29.93,SSE,164,7.0,12.0,94,0.04,,-RA,0.08,VWS V14.01,2013-08-01 08:09:00,
2013-08-01 04:14:00,71.5,69.7,29.93,SE,146,7.0,8.0,94,0.04,,-RA,0.08,VWS V14.01,2013-08-01 08:14:00,
2013-08-01 04:19:00,71.4,69.6,29.92,South,172,4.0,9.0,94,0.04,,-RA,0.08,VWS V14.01,2013-08-01 08:19:00,
2013-08-01 04:25:00,71.3,69.5,29.92,South,171,6.0,10.0,94,0.04,,-RA,0.08,VWS V14.01,2013-08-01 08:25:00,
2013-08-01 04:30:00,71.4,69.9,29.92,South,175,4.0,7.0,95,0.04,,-RA,0.08,VWS V14.01,2013-08-01 08:30:00,
2013-08-01 04:35:00,71.4,69.6,29.92,SSE,165,5.0,10.0,94,0.02,,-RA,0.08,VWS V14.01,2013-08-01 08:35:00,
2013-08-01 04:40:00,71.5,70.0,29.91,South,173,10.0,12.0,95,0.02,,RA,0.08,VWS V14.01,2013-08-01 08:40:00,
2013-08-01 04:45:00,71.7,70.2,29.91,SSE,163,10.0,12.0,95,0.02,,RA,0.08,VWS V14.01,2013-08-01 08:45:00,
2013-08-01 04:51:00,71.9,70.4,29.91,SSE,163,8.0,11.0,95,0.03,,,0.09,VWS V14.01,2013-08-01 08:51:00,
2013-08-01 04:56:00,72.1,70.6,29.91,SE,143,10.0,12.0,95,0.03,,,0.09,VWS V14.01,2013-08-01 08:56:00,
2013-08-01 05:01:00,72.2,70.7,29.90,SSE,148,12.0,12.0,95,0.02,,,0.09,VWS V14.01,2013-08-01 09:01:00,
2013-08-01 05:06:00,72.0,70.5,29.90,SE,137,7.0,11.0,95,0.02,,,0.09,VWS V14.01,2013-08-01 09:06:00,
2013-08-01 05:11:00,72.1,70.6,29.89,SE,137,9.0,11.0,95,0.03,,,0.10,VWS V14.01,2013-08-01 09:11:00,
2013-08-01 05:16:00,72.1,70.6,29.89,ESE,115,10.0,12.0,95,0.03,,,0.10,VWS V14.01,2013-08-01 09:16:00,
2013-08-01 05:22:00,72.0,70.5,29.90,SSE,154,10.0,13.0,95,0.03,,,0.10,VWS V14.01,2013-08-01 09:22:00,
2013-08-01 05:28:00,72.2,71.0,29.90,SE,142,13.0,13.0,96,0.03,,,0.10,VWS V14.01,2013-08-01 09:28:00,
2013-08-01 05:33:00,72.3,71.1,29.90,SE,144,11.0,14.0,96,0.02,,,0.10,VWS V14.01,2013-08-01 09:33:00,
2013-08-01 05:38:00,72.4,71.2,29.90,SSE,153,11.0,14.0,96,0.02,,,0.10,VWS V14.01,2013-08-01 09:38:00,
2013-08-01 05:43:00,72.5,71.3,29.90,SE,142,12.0,12.0,96,0.02,,RA,0.10,VWS V14.01,2013-08-01 09:43:00,
2013-08-01 05:49:00,72.6,71.4,29.90,SE,142,9.0,16.0,96,0.02,,RA,0.10,VWS V14.01,2013-08-01 09:49:00,
2013-08-01 05:54:00,72.6,71.1,29.90,SSE,151,11.0,15.0,95,0.02,,RA,0.10,VWS V14.01,2013-08-01 09:54:00,
2013-08-01 05:59:00,72.6,71.1,29.90,SE,144,9.0,15.0,95,0.02,,RA,0.10,VWS V14.01,2013-08-01 09:59:00,
2013-08-01 06:05:00,72.6,71.1,29.90,SSE,153,14.0,17.0,95,0.01,,RA,0.10,VWS V14.01,2013-08-01 10:05:00,
2013-08-01 06:10:00,72.6,71.1,29.90,SE,139,11.0,15.0,95,0.01,,RA,0.10,VWS V14.01,2013-08-01 10:10:00,
2013-08-01 06:15:00,72.6,71.1,29.90,SSE,165,13.0,15.0,95,0.01,,RA,0.10,VWS V14.01,2013-08-01 10:15:00,
2013-08-01 06:20:00,72.4,70.9,29.90,SSE,148,11.0,15.0,95,0.01,,RA,0.10,VWS V14.01,2013-08-01 10:20:00,
2013-08-01 06:25:00,72.3,70.8,29.90,SE,146,13.0,15.0,95,0.01,,RA,0.10,VWS V14.01,2013-08-01 10:25:00,
2013-08-01 06:31:00,72.3,71.1,29.90,SE,138,10.0,13.0,96,0.00,,RA,0.10,VWS V14.01,2013-08-01 10:31:00,
2013-08-01 06:36:00,72.4,71.2,29.90,SSE,154,10.0,13.0,96,0.00,,RA,0.10,VWS V14.01,2013-08-01 10:36:00,
2013-08-01 06:41:00,72.5,71.6,29.90,SE,131,11.0,13.0,97,0.00,,,0.10,VWS V14.01,2013-08-01 10:41:00,
2013-08-01 06:47:00,72.6,71.4,29.90,SE,139,11.0,14.0,96,0.00,,,0.10,VWS V14.01,2013-08-01 10:47:00,
2013-08-01 06:52:00,72.6,71.4,29.90,SSE,162,17.0,17.0,96,0.00,,,0.10,VWS V14.01,2013-08-01 10:52:00,
2013-08-01 06:58:00,72.5,71.3,29.90,SE,146,15.0,17.0,96,0.00,,,0.10,VWS V14.01,2013-08-01 10:58:00,
2013-08-01 07:03:00,72.5,71.3,29.90,SE,145,11.0,15.0,96,0.00,,,0.10,VWS V14.01,2013-08-01 11:03:00,
2013-08-01 07:09:00,72.6,71.4,29.90,SSE,149,14.0,16.0,96,0.00,,,0.10,VWS V14.01,2013-08-01 11:09:00,
2013-08-01 07:14:00,72.6,71.4,29.89,SSE,152,16.0,16.0,96,0.00,,,0.10,VWS V14.01,2013-08-01 11:14:00,
2013-08-01 07:19:00,72.7,71.5,29.89,SSE,155,13.0,18.0,96,0.00,,,0.10,VWS V14.01,2013-08-01 11:19:00,
2013-08-01 07:25:00,72.8,71.6,29.89,SE,146,15.0,17.0,96,0.00,,,0.10,VWS V14.01,2013-08-01 11:25:00,
2013-08-01 07:30:00,72.8,71.6,29.89,SSE,151,16.0,16.0,96,0.00,,,0.10,VWS V14.01,2013-08-01 11:30:00,
2013-08-01 07:35:00,73.0,71.8,29.89,SSE,159,15.0,18.0,96,0.00,,,0.10,VWS V14.01,2013-08-01 11:35:00,
2013-08-01 07:41:00,73.2,72.0,29.89,SSE,162,12.0,15.0,96,0.00,,,0.10,VWS V14.01,2013-08-01 11:41:00,
2013-08-01 07:46:00,73.3,72.1,29.89,SSE,160,14.0,16.0,96,0.00,,,0.10,VWS V14.01,2013-08-01 11:46:00,
2013-08-01 07:51:00,73.2,72.0,29.88,SSE,147,12.0,13.0,96,0.02,,OVC060,0.12,VWS V14.01,2013-08-01 11:51:00,
2013-08-01 07:56:00,73.3,72.1,29.88,SE,142,12.0,13.0,96,0.02,,OVC060,0.12,VWS V14.01,2013-08-01 11:56:00,
2013-08-01 08:02:00,73.3,72.1,29.88,SSE,154,10.0,13.0,96,0.02,,OVC060,0.12,VWS V14.01,2013-08-01 12:02:00,
2013-08-01 08:08:00,73.4,72.5,29.88,SSE,162,9.0,13.0,97,0.02,,OVC060,0.12,VWS V14.01,2013-08-01 12:08:00,
2013-08-01 08:13:00,73.7,72.8,29.88,South,188,13.0,16.0,97,0.02,,OVC060,0.12,VWS V14.01,2013-08-01 12:13:00,
2013-08-01 08:18:00,73.8,72.6,29.88,South,179,13.0,17.0,96,0.02,,OVC060,0.12,VWS V14.01,2013-08-01 12:18:00,
2013-08-01 08:24:00,74.0,72.5,29.88,SSE,148,17.0,18.0,95,0.02,,OVC060,0.12,VWS V14.01,2013-08-01 12:24:00,
2013-08-01 08:29:00,74.3,72.5,29.88,South,189,12.0,17.0,94,0.02,,OVC060,0.12,VWS V14.01,2013-08-01 12:29:00,
2013-08-01 08:34:00,74.5,72.3,29.88,SSE,163,13.0,16.0,93,0.02,,OVC060,0.12,VWS V14.01,2013-08-01 12:34:00,
2013-08-01 08:39:00,74.7,72.2,29.88,South,177,11.0,14.0,92,0.02,,OVC060,0.12,VWS V14.01,2013-08-01 12:39:00,
2013-08-01 08:44:00,74.7,72.6,29.88,South,173,14.0,14.0,93,0.02,,OVC060,0.12,VWS V14.01,2013-08-01 12:44:00,
2013-08-01 08:49:00,74.6,72.1,29.88,SSW,200,10.0,14.0,92,0.02,,OVC060,0.12,VWS V14.01,2013-08-01 12:49:00,
2013-08-01 08:54:00,74.6,72.1,29.88,SSE,162,10.0,12.0,92,0.02,,-RA,0.12,VWS V14.01,2013-08-01 12:54:00,
2013-08-01 09:00:00,74.6,72.4,29.88,SSE,150,7.0,11.0,93,0.02,,-RA,0.12,VWS V14.01,2013-08-01 13:00:00,
2013-08-01 09:05:00,74.8,72.6,29.88,South,182,7.0,14.0,93,0.00,,-RA,0.12,VWS V14.01,2013-08-01 13:05:00,
2013-08-01 09:10:00,75.0,72.8,29.88,South,172,4.0,15.0,93,0.00,,-RA,0.12,VWS V14.01,2013-08-01 13:10:00,
2013-08-01 09:15:00,75.0,72.8,29.87,South,171,13.0,17.0,93,0.00,,-RA,0.12,VWS V14.01,2013-08-01 13:15:00,
2013-08-01 09:20:00,75.1,72.6,29.87,SSE,165,6.0,13.0,92,0.00,,-RA,0.12,VWS V14.01,2013-08-01 13:20:00,
2013-08-01 09:26:00,75.0,72.8,29.87,South,188,10.0,11.0,93,0.00,,-RA,0.12,VWS V14.01,2013-08-01 13:26:00,
2013-08-01 09:31:00,75.2,73.0,29.87,WSW,240,6.0,12.0,93,0.00,,-RA,0.12,VWS V14.01,2013-08-01 13:31:00,
2013-08-01 09:36:00,75.2,72.7,29.87,South,178,7.0,12.0,92,0.00,,-RA,0.12,VWS V14.01,2013-08-01 13:36:00,
2013-08-01 09:41:00,75.3,72.8,29.87,SSW,203,5.0,10.0,92,0.00,,RA,0.12,VWS V14.01,2013-08-01 13:41:00,
2013-08-01 09:47:00,75.3,72.8,29.87,South,178,13.0,13.0,92,0.00,,RA,0.12,VWS V14.01,2013-08-01 13:47:00,
2013-08-01 09:53:00,75.3,72.8,29.86,South,186,3.0,10.0,92,0.00,,RA,0.12,VWS V14.01,2013-08-01 13:53:00,
2013-08-01 09:58:00,75.3,72.8,29.86,SSE,161,6.0,11.0,92,0.00,,RA,0.12,VWS V14.01,2013-08-01 13:58:00,
2013-08-01 10:03:00,75.2,72.7,29.86,SW,217,5.0,12.0,92,0.00,,RA,0.12,VWS V14.01,2013-08-01 14:03:00,
2013-08-01 10:08:00,75.2,72.7,29.86,SSE,167,6.0,9.0,92,0.00,,RA,0.12,VWS V14.01,2013-08-01 14:08:00,
2013-08-01 10:13:00,75.2,72.7,29.86,South,181,3.0,7.0,92,0.00,,RA,0.12,VWS V14.01,2013-08-01 14:13:00,
2013-08-01 10:19:00,75.2,72.7,29.86,SSW,200,6.0,10.0,92,0.00,,RA,0.12,VWS V14.01,2013-08-01 14:19:00,
2013-08-01 10:24:00,75.1,72.6,29.86,SW,217,11.0,15.0,92,0.00,,RA,0.12,VWS V14.01,2013-08-01 14:24:00,
2013-08-01 10:30:00,75.0,72.5,29.85,SSW,202,4.0,14.0,92,0.00,,RA,0.12,VWS V14.01,2013-08-01 14:30:00,
2013-08-01 10:35:00,75.0,72.5,29.85,SE,144,4.0,9.0,92,0.00,,RA,0.12,VWS V14.01,2013-08-01 14:35:00,
2013-08-01 10:40:00,75.0,72.5,29.85,WSW,239,11.0,13.0,92,0.00,,-RA,0.12,VWS V14.01,2013-08-01 14:40:00,
2013-08-01 10:46:00,74.8,72.3,29.85,SW,222,9.0,13.0,92,0.01,,-RA,0.13,VWS V14.01,2013-08-01 14:46:00,
2013-08-01 10:51:00,74.7,72.6,29.85,SW,218,7.0,15.0,93,0.01,,-RA,0.13,VWS V14.01,2013-08-01 14:51:00,
2013-08-01 10:56:00,74.5,72.3,29.86,SSW,204,10.0,13.0,93,0.01,,-RA,0.13,VWS V14.01,2013-08-01 14:56:00,
2013-08-01 11:01:00,74.4,72.2,29.86,SSW,208,11.0,13.0,93,0.01,,-RA,0.13,VWS V14.01,2013-08-01 15:01:00,
2013-08-01 11:07:00,74.4,72.2,29.85,SSW,211,15.0,15.0,93,0.01,,-RA,0.13,VWS V14.01,2013-08-01 15:07:00,
2013-08-01 11:12:00,74.4,72.6,29.85,SW,217,14.0,15.0,94,0.01,,-RA,0.13,VWS V14.01,2013-08-01 15:12:00,
2013-08-01 11:17:00,74.4,72.6,29.85,SW,236,5.0,15.0,94,0.01,,-RA,0.13,VWS V14.01,2013-08-01 15:17:00,
2013-08-01 11:22:00,74.2,72.4,29.85,SSW,213,11.0,14.0,94,0.01,,-RA,0.13,VWS V14.01,2013-08-01 15:22:00,
2013-08-01 11:27:00,74.1,72.6,29.85,SW,217,10.0,16.0,95,0.01,,-RA,0.13,VWS V14.01,2013-08-01 15:27:00,
2013-08-01 11:32:00,73.7,72.2,29.85,SW,235,12.0,16.0,95,0.04,,-RA,0.16,VWS V14.01,2013-08-01 15:32:00,
2013-08-01 11:37:00,73.7,72.2,29.85,WSW,250,12.0,14.0,95,0.04,,-RA,0.16,VWS V14.01,2013-08-01 15:37:00,
2013-08-01 11:42:00,73.8,72.6,29.85,WSW,256,10.0,12.0,96,0.04,,OVC025,0.16,VWS V14.01,2013-08-01 15:42:00,
2013-08-01 11:48:00,73.7,72.5,29.85,West,271,10.0,15.0,96,0.05,,OVC025,0.17,VWS V14.01,2013-08-01 15:48:00,
2013-08-01 11:53:00,73.5,72.3,29.85,WSW,254,7.0,13.0,96,0.06,,OVC025,0.18,VWS V14.01,2013-08-01 15:53:00,
2013-08-01 11:58:00,73.4,72.2,29.85,WSW,245,15.0,18.0,96,0.08,,OVC025,0.20,VWS V14.01,2013-08-01 15:58:00,
2013-08-01 12:03:00,73.0,71.8,29.85,West,275,7.0,13.0,96,0.11,,OVC025,0.24,VWS V14.01,2013-08-01 16:03:00,
2013-08-01 12:08:00,72.7,71.5,29.85,WSW,237,5.0,11.0,96,0.16,,OVC025,0.29,VWS V14.01,2013-08-01 16:08:00,
2013-08-01 12:13:00,72.7,71.8,29.84,SW,235,3.0,9.0,97,0.19,,OVC025,0.32,VWS V14.01,2013-08-01 16:13:00,
2013-08-01 12:18:00,72.9,72.0,29.83,WSW,252,9.0,10.0,97,0.21,,OVC025,0.34,VWS V14.01,2013-08-01 16:18:00,
2013-08-01 12:23:00,72.9,72.0,29.83,SW,224,10.0,10.0,97,0.21,,OVC025,0.34,VWS V14.01,2013-08-01 16:23:00,
2013-08-01 12:29:00,73.0,72.1,29.84,SW,233,5.0,9.0,97,0.21,,OVC025,0.34,VWS V14.01,2013-08-01 16:29:00,
2013-08-01 12:34:00,73.1,72.2,29.83,SSW,206,7.0,11.0,97,0.20,,OVC025,0.35,VWS V14.01,2013-08-01 16:34:00,
2013-08-01 12:39:00,73.1,72.2,29.84,SW,232,5.0,11.0,97,0.20,,OVC025,0.35,VWS V14.01,2013-08-01 16:39:00,
2013-08-01 12:44:00,73.2,72.3,29.83,SSW,204,3.0,7.0,97,0.20,, +RA,0.35,VWS V14.01,2013-08-01 16:44:00,
2013-08-01 12:49:00,73.2,72.3,29.83,SSW,203,5.0,13.0,97,0.21,, +RA,0.36,VWS V14.01,2013-08-01 16:49:00,
2013-08-01 12:55:00,73.5,72.6,29.83,WSW,244,3.0,12.0,97,0.21,, +RA,0.36,VWS V14.01,2013-08-01 16:55:00,
2013-08-01 13:01:00,73.8,72.9,29.83,WSW,254,10.0,12.0,97,0.15,, +RA,0.37,VWS V14.01,2013-08-01 17:01:00,
2013-08-01 13:06:00,73.7,72.8,29.83,SW,221,6.0,7.0,97,0.15,, +RA,0.37,VWS V14.01,2013-08-01 17:06:00,
2013-08-01 13:11:00,73.8,72.9,29.83,WSW,240,6.0,7.0,97,0.15,, +RA,0.37,VWS V14.01,2013-08-01 17:11:00,
2013-08-01 13:17:00,73.9,72.7,29.84,WSW,247,10.0,11.0,96,0.15,, +RA,0.37,VWS V14.01,2013-08-01 17:17:00,
2013-08-01 13:22:00,73.7,72.5,29.84,WSW,245,0.0,5.0,96,0.15,, +RA,0.37,VWS V14.01,2013-08-01 17:22:00,
2013-08-01 13:27:00,73.7,72.5,29.84,WNW,294,1.0,8.0,96,0.15,, +RA,0.37,VWS V14.01,2013-08-01 17:27:00,
2013-08-01 13:32:00,73.7,72.5,29.84,WNW,301,6.0,8.0,96,0.03,, +RA,0.37,VWS V14.01,2013-08-01 17:32:00,
2013-08-01 13:37:00,73.7,72.5,29.84,WSW,244,4.0,6.0,96,0.03,, +RA,0.37,VWS V14.01,2013-08-01 17:37:00,
2013-08-01 13:42:00,73.9,72.7,29.84,WNW,294,2.0,6.0,96,0.03,,-RA,0.37,VWS V14.01,2013-08-01 17:42:00,
2013-08-01 13:48:00,73.9,72.4,29.84,West,276,4.0,7.0,95,0.03,,-RA,0.37,VWS V14.01,2013-08-01 17:48:00,
2013-08-01 13:53:00,73.8,72.3,29.84,WNW,298,5.0,5.0,95,0.03,,-RA,0.37,VWS V14.01,2013-08-01 17:53:00,
2013-08-01 13:58:00,73.7,72.2,29.84,West,263,0.0,3.0,95,0.03,,-RA,0.37,VWS V14.01,2013-08-01 17:58:00,
2013-08-01 14:04:00,73.6,72.1,29.84,WNW,283,3.0,9.0,95,0.00,,-RA,0.37,VWS V14.01,2013-08-01 18:04:00,
2013-08-01 14:10:00,73.6,72.1,29.84,West,277,5.0,5.0,95,0.00,,-RA,0.37,VWS V14.01,2013-08-01 18:10:00,
2013-08-01 14:15:00,73.7,72.2,29.84,West,280,0.0,3.0,95,0.00,,-RA,0.37,VWS V14.01,2013-08-01 18:15:00,
2013-08-01 14:20:00,73.7,72.2,29.84,WNW,284,3.0,5.0,95,0.00,,-RA,0.37,VWS V14.01,2013-08-01 18:20:00,
2013-08-01 14:25:00,73.8,72.3,29.84,WSW,254,3.0,5.0,95,0.00,,-RA,0.37,VWS V14.01,2013-08-01 18:25:00,
2013-08-01 14:30:00,73.8,72.3,29.84,WSW,242,2.0,4.0,95,0.00,,-RA,0.37,VWS V14.01,2013-08-01 18:30:00,
2013-08-01 14:35:00,73.9,72.4,29.84,WSW,238,4.0,5.0,95,0.00,,-RA,0.37,VWS V14.01,2013-08-01 18:35:00,
2013-08-01 14:40:00,73.9,72.1,29.84,West,261,2.0,5.0,94,0.00,,-RA,0.37,VWS V14.01,2013-08-01 18:40:00,
2013-08-01 14:46:00,73.9,72.1,29.84,SW,230,4.0,4.0,94,0.00,,-RA,0.37,VWS V14.01,2013-08-01 18:46:00,
2013-08-01 14:51:00,73.9,72.1,29.83,WSW,237,3.0,5.0,94,0.00,,-RA,0.37,VWS V14.01,2013-08-01 18:51:00,
2013-08-01 14:56:00,73.9,72.1,29.83,WSW,238,4.0,5.0,94,0.00,,-RA,0.37,VWS V14.01,2013-08-01 18:56:00,
2013-08-01 15:02:00,73.9,71.8,29.83,WSW,240,4.0,7.0,93,0.00,,-RA,0.37,VWS V14.01,2013-08-01 19:02:00,
2013-08-01 15:07:00,73.9,72.1,29.83,West,262,5.0,5.0,94,0.00,,-RA,0.37,VWS V14.01,2013-08-01 19:07:00,
2013-08-01 15:12:00,73.9,71.8,29.82,WSW,239,2.0,5.0,93,0.00,,-RA,0.37,VWS V14.01,2013-08-01 19:12:00,
2013-08-01 15:17:00,74.0,72.2,29.82,SW,233,0.0,5.0,94,0.00,,-RA,0.37,VWS V14.01,2013-08-01 19:17:00,
2013-08-01 15:22:00,74.2,72.4,29.81,SW,227,0.0,2.0,94,0.00,,-RA,0.37,VWS V14.01,2013-08-01 19:22:00,
2013-08-01 15:27:00,74.3,72.5,29.81,WSW,244,0.0,3.0,94,0.00,,-RA,0.37,VWS V14.01,2013-08-01 19:27:00,
2013-08-01 15:32:00,74.2,72.4,29.80,West,269,2.0,3.0,94,0.00,,-RA,0.37,VWS V14.01,2013-08-01 19:32:00,
2013-08-01 15:37:00,74.3,72.5,29.80,West,269,0.0,0.0,94,0.00,,-RA,0.37,VWS V14.01,2013-08-01 19:37:00,
2013-08-01 15:43:00,74.4,72.6,29.80,WSW,244,2.0,4.0,94,0.00,,-RA,0.37,VWS V14.01,2013-08-01 19:43:00,
2013-08-01 15:48:00,74.5,72.7,29.80,WSW,250,3.0,5.0,94,0.00,,-RA,0.37,VWS V14.01,2013-08-01 19:48:00,
2013-08-01 15:53:00,74.6,72.8,29.80,WSW,258,0.0,1.0,94,0.00,,-RA,0.37,VWS V14.01,2013-08-01 19:53:00,
2013-08-01 15:58:00,75.0,73.5,29.80,WSW,244,0.0,5.0,95,0.00,,-RA,0.37,VWS V14.01,2013-08-01 19:58:00,
2013-08-01 16:03:00,75.9,74.4,29.80,WSW,240,3.0,5.0,95,0.00,,-RA,0.37,VWS V14.01,2013-08-01 20:03:00,
2013-08-01 16:08:00,76.4,74.2,29.81,SW,227,1.0,6.0,93,0.00,,-RA,0.37,VWS V14.01,2013-08-01 20:08:00,
2013-08-01 16:13:00,76.3,73.8,29.81,SSW,211,4.0,8.0,92,0.00,,-RA,0.37,VWS V14.01,2013-08-01 20:13:00,
2013-08-01 16:18:00,76.3,73.8,29.81,SW,236,4.0,5.0,92,0.00,,-RA,0.37,VWS V14.01,2013-08-01 20:18:00,
2013-08-01 16:24:00,76.4,73.6,29.81,SW,217,2.0,5.0,91,0.00,,-RA,0.37,VWS V14.01,2013-08-01 20:24:00,
2013-08-01 16:29:00,76.2,73.4,29.81,South,169,6.0,6.0,91,0.00,,-RA,0.37,VWS V14.01,2013-08-01 20:29:00,
2013-08-01 16:34:00,76.0,73.2,29.80,SSE,166,0.0,5.0,91,0.00,,-RA,0.37,VWS V14.01,2013-08-01 20:34:00,
2013-08-01 16:39:00,76.0,73.5,29.81,SSE,166,1.0,1.0,92,0.00,,-RA,0.37,VWS V14.01,2013-08-01 20:39:00,
2013-08-01 16:41:00,76.0,73.2,29.80,SSE,166,0.0,4.0,91,0.00,,BKN120,0.37,VWS V14.01,2013-08-01 20:41:00,
2013-08-01 16:46:00,75.9,73.1,29.80,SSE,166,0.0,4.0,91,0.00,,BKN120,0.37,VWS V14.01,2013-08-01 20:46:00,
2013-08-01 16:52:00,75.8,73.0,29.81,SSE,163,0.0,4.0,91,0.00,,BKN120,0.37,VWS V14.01,2013-08-01 20:52:00,
2013-08-01 16:57:00,75.8,73.0,29.80,SSE,166,5.0,5.0,91,0.00,,BKN120,0.37,VWS V14.01,2013-08-01 20:57:00,
2013-08-01 17:02:00,76.1,73.6,29.80,SSE,160,6.0,8.0,92,0.00,,BKN120,0.37,VWS V14.01,2013-08-01 21:02:00,
2013-08-01 17:07:00,76.5,74.0,29.80,SSE,163,6.0,6.0,92,0.00,,BKN120,0.37,VWS V14.01,2013-08-01 21:07:00,
2013-08-01 17:13:00,76.7,73.9,29.80,SSE,165,4.0,7.0,91,0.00,,BKN120,0.37,VWS V14.01,2013-08-01 21:13:00,
2013-08-01 17:18:00,76.7,73.6,29.80,SSE,159,6.0,7.0,90,0.00,,BKN120,0.37,VWS V14.01,2013-08-01 21:18:00,
2013-08-01 17:23:00,76.7,73.6,29.80,SSE,157,3.0,5.0,90,0.00,,BKN120,0.37,VWS V14.01,2013-08-01 21:23:00,
2013-08-01 17:28:00,76.9,73.8,29.80,SSE,152,3.0,5.0,90,0.00,,BKN120,0.37,VWS V14.01,2013-08-01 21:28:00,
2013-08-01 17:33:00,76.9,73.4,29.81,SSE,167,2.0,4.0,89,0.00,,BKN120,0.37,VWS V14.01,2013-08-01 21:33:00,
2013-08-01 17:38:00,77.0,73.5,29.81,South,169,2.0,5.0,89,0.00,,BKN120,0.37,VWS V14.01,2013-08-01 21:38:00,
2013-08-01 17:43:00,77.1,73.6,29.81,SSE,168,5.0,8.0,89,0.00,,OVC120,0.37,VWS V14.01,2013-08-01 21:43:00,
2013-08-01 17:48:00,77.1,73.6,29.80,SSE,167,7.0,9.0,89,0.00,,OVC120,0.37,VWS V14.01,2013-08-01 21:48:00,
2013-08-01 17:53:00,76.8,72.6,29.80,South,171,7.0,11.0,87,0.00,,OVC120,0.37,VWS V14.01,2013-08-01 21:53:00,
2013-08-01 17:59:00,76.6,72.8,29.81,SSE,167,5.0,6.0,88,0.00,,OVC120,0.37,VWS V14.01,2013-08-01 21:59:00,
2013-08-01 18:04:00,76.6,72.8,29.81,SSE,163,4.0,5.0,88,0.00,,OVC120,0.37,VWS V14.01,2013-08-01 22:04:00,
2013-08-01 18:09:00,76.9,73.4,29.81,SW,227,0.0,4.0,89,0.00,,OVC120,0.37,VWS V14.01,2013-08-01 22:09:00,
2013-08-01 18:14:00,76.9,73.1,29.81,SW,217,0.0,0.0,88,0.00,,OVC120,0.37,VWS V14.01,2013-08-01 22:14:00,
2013-08-01 18:19:00,76.8,73.0,29.81,SW,217,0.0,1.0,88,0.00,,OVC120,0.37,VWS V14.01,2013-08-01 22:19:00,
2013-08-01 18:24:00,76.5,72.7,29.81,SSW,196,1.0,3.0,88,0.00,,OVC120,0.37,VWS V14.01,2013-08-01 22:24:00,
2013-08-01 18:29:00,76.0,72.2,29.80,SSW,196,0.0,0.0,88,0.00,,OVC120,0.37,VWS V14.01,2013-08-01 22:29:00,
2013-08-01 18:34:00,75.7,72.2,29.80,SSW,196,0.0,2.0,89,0.00,,OVC120,0.37,VWS V14.01,2013-08-01 22:34:00,
2013-08-01 18:40:00,75.4,72.3,29.80,South,175,3.0,3.0,90,0.00,,OVC120,0.37,VWS V14.01,2013-08-01 22:40:00,
2013-08-01 18:45:00,75.3,72.2,29.80,South,177,0.0,5.0,90,0.00,,BKN120,0.37,VWS V14.01,2013-08-01 22:45:00,
2013-08-01 18:50:00,75.2,72.4,29.81,South,185,0.0,0.0,91,0.00,,BKN120,0.37,VWS V14.01,2013-08-01 22:50:00,
2013-08-01 18:55:00,75.1,72.3,29.80,SSE,157,5.0,5.0,91,0.00,,BKN120,0.37,VWS V14.01,2013-08-01 22:55:00,
2013-08-01 19:00:00,75.1,72.3,29.79,SSE,157,10.0,10.0,91,0.00,,BKN120,0.37,VWS V14.01,2013-08-01 23:00:00,
2013-08-01 19:05:00,75.2,72.7,29.79,SSE,162,6.0,10.0,92,0.00,,BKN120,0.37,VWS V14.01,2013-08-01 23:05:00,
2013-08-01 19:11:00,75.2,72.7,29.79,SSE,166,9.0,10.0,92,0.00,,BKN120,0.37,VWS V14.01,2013-08-01 23:11:00,
2013-08-01 19:16:00,75.3,72.8,29.79,SSE,167,5.0,11.0,92,0.00,,BKN120,0.37,VWS V14.01,2013-08-01 23:16:00,
2013-08-01 19:21:00,75.2,72.4,29.81,South,176,2.0,5.0,91,0.00,,BKN120,0.37,VWS V14.01,2013-08-01 23:21:00,
2013-08-01 19:26:00,75.2,72.4,29.82,South,186,1.0,3.0,91,0.00,,BKN120,0.37,VWS V14.01,2013-08-01 23:26:00,
2013-08-01 19:31:00,75.2,72.4,29.83,SSW,204,0.0,4.0,91,0.00,,BKN120,0.37,VWS V14.01,2013-08-01 23:31:00,
2013-08-01 19:36:00,75.1,72.3,29.82,South,169,4.0,4.0,91,0.00,,BKN120,0.37,VWS V14.01,2013-08-01 23:36:00,
2013-08-01 19:42:00,75.3,72.8,29.82,South,169,0.0,3.0,92,0.00,,BKN080,0.37,VWS V14.01,2013-08-01 23:42:00,
2013-08-01 19:47:00,75.4,72.9,29.81,SSE,165,5.0,6.0,92,0.00,,BKN080,0.37,VWS V14.01,2013-08-01 23:47:00,
2013-08-01 19:51:00,75.6,73.1,29.81,South,171,4.0,5.0,92,0.00,,BKN080,0.37,VWS V14.01,2013-08-01 23:51:00,
2013-08-01 19:57:00,75.7,73.2,29.81,SSE,159,5.0,9.0,92,0.00,,BKN080,0.37,VWS V14.01,2013-08-01 23:57:00,
2013-08-01 20:02:00,75.7,73.2,29.82,SSE,163,4.0,8.0,92,0.00,,BKN080,0.37,VWS V14.01,2013-08-02 00:02:00,
2013-08-01 20:07:00,75.7,73.2,29.81,SSE,150,10.0,10.0,92,0.00,,BKN080,0.37,VWS V14.01,2013-08-02 00:07:00,
2013-08-01 20:12:00,75.7,73.2,29.81,SE,141,5.0,8.0,92,0.00,,OVC120,0.37,VWS V14.01,2013-08-02 00:12:00,
2013-08-01 20:17:00,75.7,73.2,29.81,SE,142,6.0,6.0,92,0.00,,OVC120,0.37,VWS V14.01,2013-08-02 00:17:00,
2013-08-01 20:23:00,75.5,72.7,29.82,SE,136,5.0,5.0,91,0.00,,OVC120,0.37,VWS V14.01,2013-08-02 00:23:00,
2013-08-01 20:28:00,75.4,72.3,29.82,SE,137,0.0,3.0,90,0.00,,OVC120,0.37,VWS V14.01,2013-08-02 00:28:00,
2013-08-01 20:33:00,75.4,72.3,29.82,SE,138,4.0,4.0,90,0.00,,OVC120,0.37,VWS V14.01,2013-08-02 00:33:00,
2013-08-01 20:39:00,75.3,72.2,29.81,SSE,159,5.0,5.0,90,0.00,,OVC120,0.37,VWS V14.01,2013-08-02 00:39:00,
2013-08-01 20:44:00,75.3,72.2,29.81,SSE,161,5.0,7.0,90,0.00,,OVC120,0.37,VWS V14.01,2013-08-02 00:44:00,
2013-08-01 20:49:00,75.3,71.8,29.82,South,169,1.0,7.0,89,0.00,,OVC120,0.37,VWS V14.01,2013-08-02 00:49:00,
2013-08-01 20:54:00,75.4,71.9,29.81,South,170,0.0,5.0,89,0.00,,OVC120,0.37,VWS V14.01,2013-08-02 00:54:00,
2013-08-01 20:59:00,75.3,71.8,29.82,South,170,0.0,1.0,89,0.00,,OVC120,0.37,VWS V14.01,2013-08-02 00:59:00,
2013-08-01 21:04:00,75.3,71.8,29.82,South,177,4.0,6.0,89,0.00,,OVC120,0.37,VWS V14.01,2013-08-02 01:04:00,
2013-08-01 21:09:00,75.4,71.9,29.82,South,175,0.0,3.0,89,0.00,,OVC120,0.37,VWS V14.01,2013-08-02 01:09:00,
2013-08-01 21:14:00,75.4,71.9,29.82,South,169,2.0,7.0,89,0.00,,OVC120,0.37,VWS V14.01,2013-08-02 01:14:00,
2013-08-01 21:19:00,75.5,72.0,29.81,South,181,4.0,8.0,89,0.00,,OVC120,0.37,VWS V14.01,2013-08-02 01:19:00,
2013-08-01 21:24:00,75.5,71.7,29.81,SSE,149,7.0,7.0,88,0.00,,OVC120,0.37,VWS V14.01,2013-08-02 01:24:00,
2013-08-01 21:29:00,75.5,71.7,29.80,SSE,167,4.0,6.0,88,0.00,,OVC120,0.37,VWS V14.01,2013-08-02 01:29:00,
2013-08-01 21:34:00,75.5,72.0,29.81,SSE,153,5.0,7.0,89,0.00,,OVC120,0.37,VWS V14.01,2013-08-02 01:34:00,
2013-08-01 21:40:00,75.5,72.0,29.81,SSE,150,5.0,6.0,89,0.00,,BKN100,0.37,VWS V14.01,2013-08-02 01:40:00,
2013-08-01 21:45:00,75.5,72.4,29.82,SSE,165,0.0,3.0,90,0.00,,BKN100,0.37,VWS V14.01,2013-08-02 01:45:00,
2013-08-01 21:50:00,75.4,72.3,29.82,SSE,166,0.0,2.0,90,0.00,,BKN100,0.37,VWS V14.01,2013-08-02 01:50:00,
2013-08-01 21:55:00,75.2,72.1,29.82,SSE,166,0.0,0.0,90,0.00,,BKN100,0.37,VWS V14.01,2013-08-02 01:55:00,
2013-08-01 22:00:00,75.0,72.2,29.82,SSE,166,0.0,0.0,91,0.00,,BKN100,0.37,VWS V14.01,2013-08-02 02:00:00,
2013-08-01 22:05:00,74.8,72.0,29.82,SSE,166,0.0,0.0,91,0.00,,BKN100,0.37,VWS V14.01,2013-08-02 02:05:00,
2013-08-01 22:10:00,74.8,72.3,29.82,SSE,166,0.0,0.0,92,0.00,,BKN100,0.37,VWS V14.01,2013-08-02 02:10:00,
2013-08-01 22:15:00,74.7,72.2,29.83,SSE,166,0.0,0.0,92,0.00,,BKN100,0.37,VWS V14.01,2013-08-02 02:15:00,
2013-08-01 22:20:00,74.8,72.6,29.83,WSW,246,0.0,4.0,93,0.00,,BKN100,0.37,VWS V14.01,2013-08-02 02:20:00,
2013-08-01 22:26:00,74.7,72.6,29.82,WSW,246,0.0,0.0,93,0.00,,BKN100,0.37,VWS V14.01,2013-08-02 02:26:00,
2013-08-01 22:31:00,74.9,73.1,29.83,SW,221,0.0,4.0,94,0.00,,BKN100,0.37,VWS V14.01,2013-08-02 02:31:00,
2013-08-01 22:36:00,74.9,73.1,29.82,SW,221,0.0,0.0,94,0.00,,BKN100,0.37,VWS V14.01,2013-08-02 02:36:00,
2013-08-01 22:41:00,75.0,73.2,29.82,SW,221,0.0,0.0,94,0.00,,BKN100,0.37,VWS V14.01,2013-08-02 02:41:00,
2013-08-01 22:46:00,75.0,72.8,29.82,SW,221,0.0,0.0,93,0.00,,BKN100,0.37,VWS V14.01,2013-08-02 02:46:00,
2013-08-01 22:51:00,74.9,72.7,29.82,SW,221,0.0,0.0,93,0.00,,BKN100,0.37,VWS V14.01,2013-08-02 02:51:00,
2013-08-01 22:56:00,74.7,72.6,29.82,SW,221,0.0,0.0,93,0.00,,BKN100,0.37,VWS V14.01,2013-08-02 02:56:00,
2013-08-01 23:01:00,74.6,72.1,29.83,SW,221,0.0,0.0,92,0.00,,BKN100,0.37,VWS V14.01,2013-08-02 03:01:00,
2013-08-01 23:07:00,74.6,72.4,29.83,SW,221,0.0,0.0,93,0.00,,BKN100,0.37,VWS V14.01,2013-08-02 03:07:00,
2013-08-01 23:12:00,74.7,72.6,29.83,SW,221,4.0,4.0,93,0.00,,BKN100,0.37,VWS V14.01,2013-08-02 03:12:00,
2013-08-01 23:17:00,74.8,72.3,29.83,SSW,210,0.0,0.0,92,0.00,,BKN100,0.37,VWS V14.01,2013-08-02 03:17:00,
2013-08-01 23:22:00,74.9,72.4,29.83,SSW,210,0.0,0.0,92,0.00,,BKN100,0.37,VWS V14.01,2013-08-02 03:22:00,
2013-08-01 23:27:00,75.0,72.5,29.83,SSW,210,1.0,2.0,92,0.00,,BKN100,0.37,VWS V14.01,2013-08-02 03:27:00,
2013-08-01 23:32:00,74.9,72.1,29.83,SSW,210,0.0,0.0,91,0.00,,BKN100,0.37,VWS V14.01,2013-08-02 03:32:00,
2013-08-01 23:37:00,74.8,72.0,29.83,WSW,257,0.0,4.0,91,0.00,,BKN100,0.37,VWS V14.01,2013-08-02 03:37:00,
2013-08-01 23:42:00,74.8,72.0,29.83,WSW,257,2.0,2.0,91,0.00,,BKN032,0.37,VWS V14.01,2013-08-02 03:42:00,
2013-08-01 23:48:00,74.9,72.1,29.83,WSW,257,0.0,0.0,91,0.00,,BKN032,0.37,VWS V14.01,2013-08-02 03:48:00,
2013-08-01 23:53:00,75.0,71.9,29.83,WSW,257,0.0,0.0,90,0.00,,OVC042,0.37,VWS V14.01,2013-08-02 03:53:00,
2013-08-01 23:58:00,75.0,71.9,29.83,WSW,257,0.0,0.0,90,0.00,,OVC042,0.37,VWS V14.01,2013-08-02 03:58:00,